Time;durP1;ratioP1;P1;durP2;ratioP2;P2;SDS_P1;SDS_P2;PMS_P1;PMS_P2;Temp;Humidity;BMP_temperature;BMP_pressure;BME280_temperature;BME280_humidity;BME280_pressure;Samples;Min_cycle;Max_cycle;Signal;HPM_P1;HPM_P2
2023/06/10 00:07:25;;;;;;;2.78;2.42;;;;;;;20.67;63.78;101410.34;20964319;28;20049;-63
2023/06/10 00:17:28;;;;;;;2.60;2.40;;;;;;;20.65;63.58;101420.44;20965547;28;20475;-65
2023/06/10 00:27:34;;;;;;;3.67;2.40;;;;;;;20.64;63.09;101427.69;20972064;28;20037;-65
2023/06/10 00:37:37;;;;;;;2.83;2.50;;;;;;;20.61;62.79;101421.72;20971374;28;20045;-65
2023/06/10 00:47:39;;;;;;;3.08;2.60;;;;;;;20.65;62.75;101424.00;20948385;28;20552;-65
2023/06/10 00:57:44;;;;;;;2.63;2.30;;;;;;;20.60;63.00;101412.75;20946503;28;20143;-65
2023/06/10 01:07:49;;;;;;;3.55;2.80;;;;;;;20.56;62.63;101416.72;20956427;28;20041;-65
2023/06/10 01:18:01;;;;;;;3.05;2.65;;;;;;;20.51;62.54;101419.84;20959159;28;20056;-65
2023/06/10 01:28:27;;;;;;;4.20;2.70;;;;;;;20.48;62.10;101425.53;21004482;28;20048;-65
2023/06/10 01:38:33;;;;;;;3.47;2.83;;;;;;;20.47;62.13;101433.81;20928920;28;20045;-65
2023/06/10 01:48:36;;;;;;;2.70;2.45;;;;;;;20.43;62.00;101431.38;20951506;28;20068;-65
2023/06/10 01:58:38;;;;;;;2.95;2.65;;;;;;;20.42;61.97;101440.50;20967604;28;20045;-65
2023/06/10 02:08:40;;;;;;;3.10;2.50;;;;;;;20.41;61.90;101437.91;20936880;28;20053;-65
2023/06/10 02:18:42;;;;;;;2.75;2.50;;;;;;;20.32;61.63;101426.09;20954007;28;20536;-65
2023/06/10 02:28:44;;;;;;;2.67;2.47;;;;;;;20.36;61.76;101449.16;20964458;28;20057;-65
2023/06/10 02:38:48;;;;;;;3.20;2.88;;;;;;;20.34;61.71;101445.75;20951997;28;20132;-65
2023/06/10 02:48:51;;;;;;;2.70;2.40;;;;;;;20.33;61.42;101452.16;20956316;28;20052;-65
2023/06/10 02:58:56;;;;;;;2.88;2.35;;;;;;;20.31;61.50;101454.13;20967376;28;20052;-65
2023/06/10 03:09:00;;;;;;;2.92;2.33;;;;;;;20.29;61.51;101446.16;20979586;28;20045;-65
2023/06/10 03:19:01;;;;;;;3.05;2.25;;;;;;;20.28;61.40;101460.66;21008677;28;20087;-65
2023/06/10 03:29:04;;;;;;;3.10;2.60;;;;;;;20.28;61.68;101462.50;21041800;28;20070;-65
2023/06/10 03:39:06;;;;;;;2.85;2.53;;;;;;;20.26;61.59;101469.91;21078320;28;20056;-65
2023/06/10 03:49:09;;;;;;;2.80;2.13;;;;;;;20.28;61.78;101473.31;21058673;28;20055;-65
2023/06/10 03:59:11;;;;;;;4.40;2.42;;;;;;;20.28;61.72;101471.50;21057811;28;20052;-65
2023/06/10 04:09:13;;;;;;;2.78;2.33;;;;;;;20.28;61.97;101476.03;21057663;28;20473;-65
2023/06/10 04:19:15;;;;;;;2.35;1.85;;;;;;;20.27;61.99;101472.47;21065043;28;20048;-65
2023/06/10 04:29:17;;;;;;;3.88;2.33;;;;;;;20.28;62.20;101486.84;21055821;28;20135;-65
2023/06/10 04:39:19;;;;;;;2.75;2.13;;;;;;;20.31;62.69;101486.56;21037686;28;20478;-65
2023/06/10 04:49:21;;;;;;;2.20;2.00;;;;;;;20.31;62.80;101497.38;21053887;28;20040;-65
2023/06/10 04:59:23;;;;;;;2.55;1.95;;;;;;;20.32;63.19;101499.09;21070721;28;20065;-65
2023/06/10 05:09:25;;;;;;;2.80;2.50;;;;;;;20.31;63.87;101507.34;21070463;28;20060;-65
2023/06/10 05:19:27;;;;;;;2.70;2.13;;;;;;;20.29;64.29;101504.78;21054173;28;20060;-65
2023/06/10 05:29:29;;;;;;;1.90;1.70;;;;;;;20.29;64.74;101491.25;21069420;28;20101;-65
2023/06/10 05:39:31;;;;;;;2.15;1.80;;;;;;;20.35;65.03;101504.25;21068345;28;20519;-65
2023/06/10 05:49:32;;;;;;;2.30;2.05;;;;;;;20.36;65.76;101497.84;21068164;28;20050;-65
2023/06/10 05:59:34;;;;;;;3.42;2.30;;;;;;;20.26;66.17;101489.69;21067068;28;20044;-65
2023/06/10 06:09:36;;;;;;;2.85;2.17;;;;;;;20.25;66.74;101496.09;21055670;28;20132;-65
2023/06/10 06:19:37;;;;;;;2.63;2.10;;;;;;;20.23;67.10;101508.91;21055338;28;20052;-65
2023/06/10 06:29:39;;;;;;;3.58;2.58;;;;;;;20.22;67.65;101490.97;21065097;28;20102;-65
2023/06/10 06:39:41;;;;;;;3.13;2.03;;;;;;;20.24;67.94;101496.22;21064771;28;20109;-65
2023/06/10 06:49:43;;;;;;;3.13;2.35;;;;;;;20.24;68.26;101502.50;21065125;28;20067;-65
2023/06/10 06:59:44;;;;;;;3.00;2.58;;;;;;;20.26;68.66;101502.34;21071773;28;20524;-65
2023/06/10 07:09:46;;;;;;;2.80;2.03;;;;;;;20.29;68.86;101504.78;21068346;28;20114;-65
2023/06/10 07:19:48;;;;;;;3.83;2.40;;;;;;;20.29;69.39;101504.78;21060803;28;20080;-65
2023/06/10 07:29:51;;;;;;;2.45;2.25;;;;;;;20.33;69.70;101527.88;21078882;28;20101;-65
2023/06/10 07:39:52;;;;;;;2.97;2.40;;;;;;;20.36;69.97;101519.47;21077850;28;20087;-65
2023/06/10 07:49:54;;;;;;;3.65;2.33;;;;;;;20.42;69.81;101516.22;21077224;28;20052;-65
2023/06/10 07:59:57;;;;;;;2.35;2.05;;;;;;;20.49;68.62;101523.78;21076472;28;20050;-65
2023/06/10 08:09:59;;;;;;;3.35;2.22;;;;;;;20.55;67.97;101531.34;21055405;28;20606;-65
2023/06/10 08:20:01;;;;;;;3.72;2.17;;;;;;;20.69;67.35;101520.09;21074288;28;20058;-65
2023/06/10 08:30:03;;;;;;;3.13;2.10;;;;;;;20.80;66.78;101524.56;21074141;28;20079;-65
2023/06/10 08:40:05;;;;;;;2.22;2.03;;;;;;;20.90;66.41;101516.47;21016545;28;20049;-65
2023/06/10 08:50:07;;;;;;;2.38;2.10;;;;;;;20.98;66.24;101529.28;20979719;28;20083;-65
2023/06/10 09:00:13;;;;;;;2.75;2.13;;;;;;;21.05;65.89;101524.16;20938876;28;20043;-65
2023/06/10 09:10:15;;;;;;;3.92;2.30;;;;;;;21.09;65.61;101523.75;20986276;28;20049;-65
2023/06/10 09:20:17;;;;;;;3.63;2.33;;;;;;;21.12;65.35;101509.94;20946073;28;20071;-65
2023/06/10 09:30:26;;;;;;;2.90;2.10;;;;;;;21.16;65.61;101502.34;20920094;28;20097;-65
2023/06/10 09:40:28;;;;;;;3.22;2.03;;;;;;;21.18;65.65;101497.66;20964429;28;20052;-65
2023/06/10 09:50:33;;;;;;;2.83;2.25;;;;;;;21.23;65.87;101498.09;20978013;28;20050;-65
2023/06/10 10:00:34;;;;;;;2.88;2.00;;;;;;;21.25;65.64;101493.38;20941090;28;20056;-65
2023/06/10 10:10:36;;;;;;;2.58;1.83;;;;;;;21.27;65.43;101494.09;21021053;28;20055;-65
2023/06/10 10:20:52;;;;;;;2.38;1.88;;;;;;;21.27;65.31;101480.56;20944855;28;20079;-65
2023/06/10 10:30:58;;;;;;;2.20;2.00;;;;;;;21.30;64.75;101488.38;20967788;28;20072;-65
2023/06/10 10:41:00;;;;;;;3.25;1.88;;;;;;;21.32;64.62;101480.09;20948548;28;20096;-65
2023/06/10 10:51:02;;;;;;;2.10;1.90;;;;;;;21.33;64.18;101475.56;20936274;28;20066;-64
2023/06/10 11:01:17;;;;;;;1.90;1.70;;;;;;;21.35;63.42;101462.72;20904508;28;20054;-65
2023/06/10 11:11:23;;;;;;;;;;;;;;;21.39;63.15;101453.31;20991463;28;20049;-65
2023/06/10 11:21:26;;;;;;;2.10;1.73;;;;;;;21.41;63.00;101449.44;20942335;28;19947;-65
2023/06/10 11:31:31;;;;;;;1.40;1.30;;;;;;;21.46;62.31;101443.59;20942757;28;20156;-64
2023/06/10 11:41:34;;;;;;;1.50;1.40;;;;;;;21.52;61.62;101440.28;20997918;28;20044;-65
2023/06/10 11:51:41;;;;;;;1.50;1.10;;;;;;;21.57;61.29;101431.72;20973427;28;20067;-65
2023/06/10 12:01:44;;;;;;;1.98;1.48;;;;;;;21.61;60.75;101424.13;20943083;28;20439;-65
2023/06/10 12:11:49;;;;;;;2.33;1.63;;;;;;;21.61;60.61;101424.13;20960265;28;20059;-64
2023/06/10 12:21:50;;;;;;;1.73;1.40;;;;;;;21.59;60.00;101418.88;20978257;28;20053;-64
2023/06/10 12:32:00;;;;;;;1.63;1.50;;;;;;;21.57;60.15;101413.59;20990177;28;20448;-64
2023/06/10 12:42:03;;;;;;;1.42;1.23;;;;;;;21.55;60.00;101412.06;20971562;28;20369;-64
2023/06/10 12:52:05;;;;;;;1.85;1.48;;;;;;;21.54;59.37;101403.06;20970738;28;20362;-65
2023/06/10 13:02:07;;;;;;;2.17;1.33;;;;;;;21.53;59.02;101393.22;20991110;28;20057;-64
2023/06/10 13:12:09;;;;;;;2.75;1.60;;;;;;;21.51;57.93;101391.69;21052632;28;20109;-64
2023/06/10 13:22:19;;;;;;;2.13;1.70;;;;;;;21.50;57.32;101385.41;21052595;28;20546;-64
2023/06/10 13:32:21;;;;;;;2.47;1.43;;;;;;;21.47;57.39;101379.44;21069290;28;20056;-64
2023/06/10 13:42:22;;;;;;;1.95;1.60;;;;;;;21.47;56.21;101372.16;21050863;28;20504;-64
2023/06/10 13:52:24;;;;;;;2.00;1.63;;;;;;;21.46;56.63;101367.75;21067655;28;20044;-64
2023/06/10 14:02:25;;;;;;;3.92;1.70;;;;;;;21.43;55.54;101363.50;21056938;28;20055;-64
2023/06/10 14:12:27;;;;;;;2.25;1.60;;;;;;;21.43;55.70;101357.22;21029015;28;20055;-63
2023/06/10 14:22:29;;;;;;;1.90;1.60;;;;;;;21.43;55.26;101349.94;20930914;28;20095;-63
2023/06/10 14:32:31;;;;;;;1.90;1.70;;;;;;;21.44;54.92;101348.06;20918408;28;20044;-64
2023/06/10 14:42:33;;;;;;;1.95;1.75;;;;;;;21.38;55.51;101338.69;20933049;28;20638;-64
2023/06/10 14:52:34;;;;;;;1.73;1.50;;;;;;;21.45;55.32;101344.38;20951918;28;20047;-67
2023/06/10 15:02:37;;;;;;;2.38;1.70;;;;;;;21.45;54.94;101341.66;20938788;28;20062;-64
2023/06/10 15:12:39;;;;;;;2.03;1.60;;;;;;;21.50;56.51;101324.97;20906953;28;20082;-63
2023/06/10 15:22:40;;;;;;;4.50;2.40;;;;;;;21.53;57.65;101322.78;20908601;28;20045;-62
2023/06/10 15:32:42;;;;;;;3.90;2.20;;;;;;;21.62;59.50;101306.63;20939516;28;20044;-64
2023/06/10 15:42:43;;;;;;;3.50;1.95;;;;;;;21.59;59.23;101308.66;20916493;28;20048;-62
2023/06/10 15:52:45;;;;;;;5.43;2.80;;;;;;;21.59;60.28;101307.81;20922174;28;20044;-61
2023/06/10 16:02:47;;;;;;;4.95;2.60;;;;;;;21.58;60.52;101304.22;20931016;28;20043;-61
2023/06/10 16:12:48;;;;;;;6.03;3.00;;;;;;;21.55;60.91;101296.41;20953450;28;20079;-60
2023/06/10 16:22:50;;;;;;;4.40;2.65;;;;;;;21.53;60.24;101286.75;20925718;28;20048;-60
2023/06/10 16:32:52;;;;;;;2.83;2.00;;;;;;;21.55;59.89;101287.44;20957263;28;20076;-60
2023/06/10 16:42:53;;;;;;;4.25;2.33;;;;;;;21.56;59.80;101287.28;20966757;28;20060;-60
2023/06/10 16:52:55;;;;;;;2.72;1.77;;;;;;;21.56;59.46;101286.44;20964972;28;20529;-60
2023/06/10 17:02:57;;;;;;;2.88;1.92;;;;;;;21.55;59.64;101290.16;20944445;28;20086;-61
2023/06/10 17:12:58;;;;;;;4.88;2.53;;;;;;;21.52;59.50;101294.00;20951562;28;20428;-61
2023/06/10 17:23:00;;;;;;;3.88;2.30;;;;;;;21.46;59.46;101289.19;20964995;28;20071;-61
2023/06/10 17:33:02;;;;;;;4.18;2.53;;;;;;;21.42;59.75;101287.78;20953321;28;20044;-61
2023/06/10 17:43:03;;;;;;;2.80;2.00;;;;;;;21.39;59.80;101290.81;20936972;28;20045;-61
2023/06/10 17:53:05;;;;;;;2.85;1.77;;;;;;;21.39;59.90;101299.75;20923369;28;20147;-61
2023/06/10 18:03:07;;;;;;;3.08;1.80;;;;;;;21.38;59.93;101299.94;20946048;28;20447;-62
2023/06/10 18:13:09;;;;;;;2.72;2.00;;;;;;;21.36;59.56;101291.09;20944521;28;20048;-62
2023/06/10 18:23:11;;;;;;;2.80;2.00;;;;;;;21.31;59.49;101294.25;20963052;28;20048;-62
2023/06/10 18:33:13;;;;;;;2.28;1.70;;;;;;;21.27;59.43;101303.69;20941634;28;20053;-62
2023/06/10 18:43:14;;;;;;;3.55;1.73;;;;;;;21.25;59.55;101309.25;20965973;28;20497;-62
2023/06/10 18:53:16;;;;;;;2.83;1.67;;;;;;;21.24;59.85;101301.28;20992055;28;20123;-62
2023/06/10 19:03:17;;;;;;;2.38;1.70;;;;;;;21.20;59.58;101311.53;20991602;28;20036;-62
2023/06/10 19:13:20;;;;;;;2.22;1.77;;;;;;;21.18;59.61;101321.66;20964924;28;20041;-62
2023/06/10 19:23:21;;;;;;;2.15;1.67;;;;;;;21.18;59.92;101331.66;20951361;28;20048;-62
2023/06/10 19:33:23;;;;;;;2.05;1.77;;;;;;;21.16;59.96;101339.91;20939162;28;20136;-62
2023/06/10 19:43:24;;;;;;;2.90;1.40;;;;;;;21.14;60.04;101358.16;20927601;28;20052;-62
2023/06/10 19:53:26;;;;;;;2.13;1.75;;;;;;;21.12;60.18;101355.59;20945626;28;20411;-62
2023/06/10 20:03:28;;;;;;;1.65;1.42;;;;;;;21.11;60.33;101369.28;21026888;28;20501;-62
2023/06/10 20:13:29;;;;;;;1.67;1.50;;;;;;;21.05;60.25;101370.72;20909337;28;20053;-62
2023/06/10 20:23:31;;;;;;;2.13;1.80;;;;;;;21.05;60.54;101375.28;20945460;28;20049;-62
2023/06/10 20:33:33;;;;;;;1.67;1.50;;;;;;;21.00;60.43;101384.69;20918857;28;20044;-62
2023/06/10 20:43:34;;;;;;;2.22;1.58;;;;;;;21.00;60.47;101390.09;20985147;28;20044;-62
2023/06/10 20:53:36;;;;;;;2.00;1.80;;;;;;;20.98;60.59;101392.09;20977256;28;20171;-62
2023/06/10 21:03:37;;;;;;;1.90;1.70;;;;;;;20.97;61.00;101403.06;20961526;28;20053;-62
2023/06/10 21:13:39;;;;;;;1.85;1.58;;;;;;;20.93;61.33;101394.41;20967924;28;20075;-62
2023/06/10 21:23:41;;;;;;;1.75;1.30;;;;;;;20.90;61.73;101397.38;20968610;28;20044;-63
2023/06/10 21:33:43;;;;;;;2.30;1.52;;;;;;;20.92;62.09;101405.34;20951068;28;20060;-62
2023/06/10 21:43:45;;;;;;;1.90;1.23;;;;;;;20.89;62.81;101402.94;20943316;28;20091;-62
2023/06/10 21:53:46;;;;;;;2.13;1.50;;;;;;;20.88;63.22;101401.22;20956902;28;20075;-62
2023/06/10 22:03:48;;;;;;;2.30;1.70;;;;;;;20.86;64.02;101401.38;20966861;28;20051;-62
2023/06/10 22:13:50;;;;;;;2.97;1.75;;;;;;;20.85;64.28;101402.38;20936863;28;20048;-62
2023/06/10 22:23:53;;;;;;;2.30;1.77;;;;;;;20.84;64.39;101406.09;20963444;28;20523;-62
2023/06/10 22:33:55;;;;;;;2.63;1.63;;;;;;;20.79;64.46;101398.38;20980979;28;20100;-62
2023/06/10 22:43:56;;;;;;;2.50;1.80;;;;;;;20.81;66.02;101400.97;21005815;28;20048;-62
2023/06/10 22:53:58;;;;;;;2.30;1.80;;;;;;;20.80;66.05;101407.38;20984799;28;20076;-64
2023/06/10 23:04:00;;;;;;;2.88;1.75;;;;;;;20.80;67.18;101407.38;20987043;28;20419;-64
2023/06/10 23:14:01;;;;;;;3.47;2.13;;;;;;;20.79;67.42;101402.97;20976715;28;20405;-64
2023/06/10 23:24:04;;;;;;;3.33;1.80;;;;;;;20.77;67.69;101397.66;20983173;28;20088;-64
2023/06/10 23:34:05;;;;;;;3.38;1.98;;;;;;;20.76;68.09;101401.34;20973497;28;20048;-64
2023/06/10 23:44:07;;;;;;;2.95;2.10;;;;;;;20.74;68.55;101414.16;20971918;28;20140;-64
2023/06/10 23:54:09;;;;;;;3.08;2.40;;;;;;;20.75;68.67;101423.13;20968659;28;20091;-64
